• Join FlightAware (Why Join?)
  • Login
  • US Flag 
08:30PM EST


 

Airport Tracker/Info


-or-


 

Live Flight TrackerFlight Track Log ✈ BAW581 ✈ 08-Apr-2013 ✈ LIMC / MXP - EGLL / LHR

Flight Track Log - Related Links

Times and Time Zones

All times are in EDT time to prevent confusion due to time zone crossing. See the BAW581 flight status page for this flight to view local times or setup timezone preferences in your user account.

Time Position Orientation Groundspeed Altitude Reporting Facility
EDT Latitude Longitude Course Direction KTS MPH feet Rate Location/Type
04:04PM 45.6971 8.6400 317° Northwest  Level Estimated
04:05PM 45.7636 8.5517 317° Northwest  Level Estimated
04:05PM 45.6410 8.7690 317° Northwest 290 334 12,400  Level FlightAware
04:05PM 45.6390 8.7490 262° West 319 367 13,300 3,600 Climbing FlightAware
04:06PM 45.6470 8.6550 277° West 331 381 15,700 3,060 Climbing FlightAware
04:06PM 45.6590 8.5560 280° West 345 397 17,900 2,820 Climbing FlightAware
04:07PM 45.6690 8.4750 280° West 355 409 19,500 3,180 Climbing FlightAware
04:08PM 45.6810 8.3710 279° West 344 396 22,200 2,820 Climbing FlightAware
04:08PM 45.6920 8.2820 280° West 353 406 23,500 2,160 Climbing FlightAware
04:09PM 45.7040 8.1760 279° West 360 414 25,300 2,100 Climbing FlightAware
04:10PM 45.7150 8.0790 279° West 370 426 26,500 1,860 Climbing FlightAware
04:11PM 45.7270 7.9710 279° West 375 432 28,000 1,380 Climbing FlightAware
04:11PM 45.7390 7.8720 280° West 396 456 28,500 1,080 Climbing FlightAware
04:12PM 45.7550 7.7610 282° West 407 468 29,500 1,620 Climbing FlightAware
04:13PM 45.8050 7.6630 306° West 420 483 30,800 1,800 Climbing FlightAware
04:13PM 45.8520 7.5930 314° West 419 482 31,900 1,860 Climbing FlightAware
04:14PM 45.9090 7.5070 314° West 413 475 33,300 1,920 Climbing FlightAware
04:14PM 45.9360 7.4670 314° West 407 468 34,000 1,500 Climbing FlightAware
04:15PM 46.0160 7.3470 314° West 406 467 35,500 1,200 Climbing FlightAware
04:16PM 46.0780 7.2530 314° West 415 478 36,200 1,020 Climbing FlightAware
04:17PM 46.1320 7.1720 314° West 413 475 37,000 1,260 Climbing FlightAware
04:18PM 46.1930 7.0800 314° West 413 475 38,000 660 Climbing FlightAware
04:18PM 46.2460 6.9990 313° West 417 480 38,000  Level FlightAware
04:19PM 46.2980 6.9200 314° West 414 476 38,000  Level FlightAware
04:20PM 46.3600 6.8250 313° West 411 473 38,000  Level FlightAware
04:20PM 46.4120 6.7460 314° West 419 482 38,000  Level FlightAware
04:21PM 46.4650 6.6630 313° West 421 484 38,000 60 Level FlightAware
04:22PM 46.5110 6.5920 313° West 421 484 38,100  Climbing FlightAware
04:22PM 46.5580 6.5200 314° West 408 470 38,000 -120 Descending FlightAware
04:23PM 46.6140 6.4320 313° West 398 458 38,000  Level FlightAware
04:24PM 46.6500 6.3770 314° West 396 456 38,000  Level FlightAware
04:24PM 46.7020 6.2960 313° West 399 459 38,000  Level FlightAware
04:25PM 46.7620 6.2130 317° Northwest 403 464 38,000  Level FlightAware
04:26PM 46.8350 6.1280 321° Northwest 395 455 38,000  Level FlightAware
04:26PM 46.8940 6.0580 321° Northwest 401 461 38,000  Level FlightAware
04:27PM 46.9580 5.9830 321° Northwest 402 463 38,000  Level FlightAware
04:28PM 47.0170 5.9140 321° Northwest 404 465 38,000  Level FlightAware
04:28PM 47.0820 5.8370 321° Northwest 403 464 38,000  Level FlightAware
04:29PM 47.1420 5.7670 322° Northwest 405 466 38,000  Level FlightAware
04:30PM 47.2060 5.6900 321° Northwest 407 468 38,000  Level FlightAware
04:31PM 47.2600 5.6250 321° Northwest 407 468 38,000  Level FlightAware
04:31PM 47.3210 5.5520 321° Northwest 406 467 38,000  Level FlightAware
04:32PM 47.3860 5.4740 321° Northwest 405 466 38,000  Level FlightAware
04:33PM 47.4470 5.4010 321° Northwest 407 468 38,000  Level FlightAware
04:33PM 47.5080 5.3260 320° Northwest 408 470 38,000  Level FlightAware
04:34PM 47.5680 5.2530 321° Northwest 408 470 38,000  Level FlightAware
04:35PM 47.6350 5.1720 321° Northwest 409 471 38,000  Level FlightAware
04:35PM 47.6940 5.0990 320° Northwest 410 472 38,000  Level FlightAware
04:36PM 47.7580 5.0220 321° Northwest 410 472 38,000  Level FlightAware
04:37PM 47.8170 4.9490 320° Northwest 410 472 38,000  Level FlightAware
04:38PM 47.8730 4.8800 320° Northwest 411 473 38,000  Level FlightAware
04:38PM 47.9430 4.7940 321° Northwest 411 473 38,000  Level FlightAware
04:39PM 48.0020 4.7200 320° Northwest 412 474 38,000  Level FlightAware
04:40PM 48.0640 4.6430 320° Northwest 413 475 38,000  Level FlightAware
04:40PM 48.1240 4.5680 320° Northwest 415 478 38,000  Level FlightAware
04:41PM 48.1830 4.4940 320° Northwest 418 481 38,000  Level FlightAware
04:42PM 48.2500 4.4110 320° Northwest 418 481 38,000 60 Level FlightAware
04:42PM 48.3110 4.3330 320° Northwest 417 480 38,100  Climbing FlightAware
04:43PM 48.3740 4.2530 320° Northwest 417 480 38,000 -120 Descending FlightAware
04:44PM 48.4330 4.1790 320° Northwest 417 480 38,000  Level FlightAware
04:45PM 48.4930 4.1020 320° Northwest 417 480 38,000  Level FlightAware
04:45PM 48.5600 4.0170 320° Northwest 419 482 38,000  Level FlightAware
04:46PM 48.6090 3.9540 320° Northwest 419 482 38,000  Level FlightAware
04:47PM 48.6760 3.8670 319° Northwest 418 481 38,000  Level FlightAware
04:47PM 48.7190 3.8130 320° Northwest 417 480 38,000  Level FlightAware
04:48PM 48.7870 3.7240 319° Northwest 415 478 38,000  Level FlightAware
04:49PM 48.8420 3.6530 320° Northwest 416 479 38,000  Level FlightAware
04:49PM 48.9110 3.5630 319° Northwest 417 480 38,000  Level FlightAware
04:50PM 48.9690 3.4880 320° Northwest 419 482 38,000  Level FlightAware
04:51PM 49.0300 3.4070 319° Northwest 420 483 38,000  Level FlightAware
04:51PM 49.0417 3.3923 321° Northwest 421 484 38,000  Level FlightAware ADS-B
04:51PM 49.0950 3.3230 320° Northwest 418 481 38,000 -1,320 Level FlightAware
04:52PM 49.1403 3.2347 320° Northwest 1 1 36,500  Descending FlightAware UK
04:52PM 49.1530 3.2450 320° Northwest 418 481 38,000  Climbing FlightAware
04:52PM 49.1965 3.1888 320° Northwest 1 1 36,500  Descending FlightAware UK
04:53PM 49.2110 3.1670 320° Northwest 416 479 38,000  Climbing FlightAware
04:53PM 49.2403 3.1304 320° Northwest 1 1 36,500 -2,700 Descending FlightAware UK
04:53PM 49.2669 3.0918 317° Northwest 1 1 36,500 3,060 Level FlightAware UK
04:53PM 49.2790 3.0910 317° Northwest 419 482 38,000  Climbing FlightAware
04:54PM 49.3302 3.0464 317° Northwest 1 1 36,500  Descending FlightAware UK
04:54PM 49.3440 3.0310 317° Northwest 420 483 38,000  Climbing FlightAware
04:54PM 49.3783 2.9945 317° Northwest 1 1 36,500 -2,760 Descending FlightAware UK
04:55PM 49.4088 2.9695 332° Northwest 1 1 36,500 3,000 Level FlightAware UK
04:55PM 49.4220 2.9580 332° Northwest 420 483 38,000  Climbing FlightAware
04:55PM 49.4584 2.9246 332° Northwest 1 1 36,500 -2,520 Descending FlightAware UK
04:55PM 49.4879 2.8954 327° Northwest 1 1 36,500 4,080 Level FlightAware UK
04:56PM 49.4880 2.8960 327° Northwest 420 483 38,000  Climbing FlightAware
04:56PM 49.5277 2.8586 327° Northwest 1 1 36,500  Descending FlightAware UK
04:56PM 49.5640 2.8240 327° Northwest 421 484 38,000 -180 Climbing FlightAware
04:57PM 49.6102 2.7829 327° Northwest 1 1 36,400  Descending FlightAware UK
04:57PM 49.6300 2.7620 327° Northwest 423 487 38,000  Climbing FlightAware
04:57PM 49.6692 2.7225 327° Northwest 448 516 36,400 -2,640 Descending FlightAware UK
04:58PM 49.6990 2.6942 328° Northwest 450 518 36,400 4,560 Level FlightAware UK
04:58PM 49.6970 2.6980 328° Northwest 424 488 38,000  Climbing FlightAware
04:58PM 49.7294 2.6667 328° Northwest 448 516 36,400 -2,940 Descending FlightAware UK
04:58PM 49.7597 2.6388 329° Northwest 450 518 36,400 3,180 Level FlightAware UK
04:58PM 49.7710 2.6280 329° Northwest 426 490 38,000 180 Climbing FlightAware
04:59PM 49.8100 2.5918 329° Northwest 450 518 36,500 -2,580 Descending FlightAware UK
04:59PM 49.8398 2.5638 329° Northwest 452 520 36,500 4,080 Level FlightAware UK
04:59PM 49.8380 2.5640 329° Northwest 427 491 38,000  Climbing FlightAware
04:59PM 49.8797 2.5252 329° Northwest 452 520 36,500 -2,460 Descending FlightAware UK
05:00PM 49.9100 2.4968 329° Northwest 452 520 36,500 3,420 Level FlightAware UK
05:00PM 49.9150 2.4910 329° Northwest 427 491 38,000  Climbing FlightAware
05:00PM 49.9504 2.4586 329° Northwest 452 520 36,500 -2,580 Descending FlightAware UK
05:00PM 49.9768 2.4211 318° Northwest 452 520 36,500 3,720 Level FlightAware UK
05:00PM 49.9780 2.4190 318° Northwest 420 483 38,000  Climbing FlightAware
05:01PM 50.0088 2.3474 318° Northwest 452 520 36,500  Descending FlightAware UK
05:01PM 50.0180 2.3160 318° Northwest 416 479 38,000  Climbing FlightAware
05:01PM 50.0358 2.2683 318° Northwest 452 520 36,500 -2,760 Descending FlightAware UK
05:02PM 50.0520 2.2209 298° West 452 520 36,500 3,000 Level FlightAware UK
05:02PM 50.0570 2.2010 298° West 415 478 38,000  Climbing FlightAware
05:02PM 50.0786 2.1424 298° West 452 520 36,500 -2,580 Descending FlightAware UK
05:02PM 50.0947 2.0948 298° West 452 520 36,500 3,900 Level FlightAware UK
05:03PM 50.0930 2.0950 298° West 415 478 38,000  Climbing FlightAware
05:03PM 50.1159 2.0314 298° West 452 520 36,500  Descending FlightAware UK
05:03PM 50.1201 2.0134 298° West 415 478 38,000 -840 Climbing FlightAware ADS-B
05:03PM 50.1421 1.9520 298° West 448 516 36,100 -840 Descending FlightAware UK
05:04PM 50.1478 1.9328 298° West 413 475 37,600 2,040 Climbing FlightAware ADS-B
05:04PM 50.1709 1.8780 303° West 417 480 37,200 -3,660 Descending FlightAware ADS-B
05:04PM 50.1932 1.8346 303° West 448 516 35,300 -1,620 Descending FlightAware UK
05:04PM 50.2016 1.8174 303° West 420 483 36,500 -2,400 Climbing FlightAware ADS-B
05:05PM 50.2326 1.7673 303° West 448 516 34,100 -2,400 Descending FlightAware UK
05:05PM 50.2425 1.7512 303° West 420 483 35,300 -2,040 Climbing FlightAware ADS-B
05:05PM 50.2741 1.7045 303° West 448 516 33,100 -1,980 Descending FlightAware UK
05:05PM 50.2844 1.6874 303° West 410 472 34,300 -2,040 Climbing FlightAware ADS-B
05:06PM 50.3146 1.6429 303° West 446 513 32,100 -2,040 Descending FlightAware UK
05:06PM 50.3280 1.6205 303° West 398 458 33,200 -1,800 Climbing FlightAware ADS-B
05:06PM 50.3532 1.5824 303° West 436 502 31,200 -1,800 Descending FlightAware UK
05:06PM 50.3681 1.5589 303° West 386 444 32,300 -2,040 Climbing FlightAware ADS-B
05:07PM 50.3913 1.5241 303° West 428 493 30,200 -1,920 Descending FlightAware UK
05:07PM 50.4127 1.4902 303° West 377 434 31,200 -1,680 Climbing FlightAware ADS-B
05:07PM 50.4351 1.4559 303° West 414 476 29,200 -1,800 Descending FlightAware UK
05:08PM 50.4495 1.4331 303° West 361 415 30,300 -1,800 Climbing FlightAware ADS-B
05:08PM 50.4705 1.4010 303° West 406 467 28,300 -1,620 Descending FlightAware UK
05:08PM 50.4845 1.3790 303° West 351 404 29,500 -1,620 Climbing FlightAware ADS-B
05:08PM 50.5047 1.3475 303° West 390 449 27,500 -1,800 Descending FlightAware UK
05:09PM 50.5187 1.3220 303° West 343 395 28,600 -1,680 Climbing FlightAware ADS-B
05:09PM 50.5432 1.2815 303° West 370 426 26,500 -1,860 Descending FlightAware UK
05:09PM 50.5538 1.2625 303° West 350 403 27,600 -2,040 Climbing FlightAware ADS-B
05:09PM 50.5753 1.2269 303° West 372 428 25,500 -1,980 Descending FlightAware UK
05:10PM 50.5895 1.2037 303° West 366 421 26,600 -1,800 Climbing FlightAware ADS-B
05:10PM 50.6114 1.1692 303° West 376 433 24,600 -1,920 Descending FlightAware UK
05:10PM 50.6277 1.1436 303° West 362 417 25,600 -2,040 Climbing FlightAware ADS-B
05:10PM 50.6541 1.1027 303° West 366 421 23,400 -1,800 Descending FlightAware UK
05:11PM 50.6629 1.0883 303° West 357 411 24,700 -1,800 Climbing FlightAware ADS-B
05:11PM 50.6887 1.0476 303° West 362 417 22,500 -3,960 Descending FlightAware UK
05:11PM 50.7158 1.0046 315° West 358 412 21,800 600 Descending FlightAware UK
05:12PM 50.7290 0.9830 315° West 345 397 22,900 -1,860 Climbing FlightAware
05:12PM 50.7561 0.9407 315° West 354 407 20,700 -2,040 Descending FlightAware UK
05:12PM 50.7682 0.9210 315° West 339 390 21,800 -1,800 Climbing FlightAware ADS-B
05:12PM 50.7891 0.8883 315° West 348 400 19,800 -1,800 Descending FlightAware UK
05:13PM 50.8018 0.8673 315° West 333 383 20,900 -1,920 Climbing FlightAware ADS-B
05:13PM 50.8212 0.8366 315° West 346 398 18,900 -4,560 Descending FlightAware UK
05:13PM 50.8402 0.8065 315° West 342 394 18,400 1,440 Descending FlightAware UK
05:13PM 50.8492 0.7917 315° West 325 374 19,600 -1,800 Climbing FlightAware ADS-B
05:14PM 50.8715 0.7561 315° West 336 387 17,500 -1,740 Descending FlightAware UK
05:14PM 50.8850 0.7343 315° West 320 368 18,600 -1,680 Climbing FlightAware ADS-B
05:14PM 50.9086 0.6968 315° West 330 380 16,500 -1,740 Descending FlightAware UK
05:15PM 50.9182 0.6810 315° West 312 359 17,700 -1,800 Climbing FlightAware ADS-B
05:15PM 50.9387 0.6483 315° West 326 375 15,600 -1,740 Descending FlightAware UK
05:15PM 50.9502 0.6293 315° West 307 353 16,800 -1,620 Climbing FlightAware ADS-B
05:15PM 50.9683 0.6004 315° West 320 368 14,800 -4,260 Descending FlightAware UK
05:16PM 50.9858 0.5725 315° West 320 368 14,400 1,500 Descending FlightAware UK
05:16PM 50.9941 0.5526 315° West 301 346 15,600 -1,620 Climbing FlightAware ADS-B
05:16PM 51.0066 0.5147 315° West 316 364 13,600 -1,500 Descending FlightAware UK
05:16PM 51.0151 0.4884 315° West 294 338 14,800 -1,500 Climbing FlightAware ADS-B
05:17PM 51.0289 0.4458 315° West 308 354 12,700 -1,380 Descending FlightAware UK
05:17PM 51.0337 0.4301 315° West 288 331 14,100 -840 Climbing FlightAware ADS-B
05:17PM 51.0467 0.3889 315° West 302 348 12,300 -1,020 Descending FlightAware UK
05:17PM 51.0521 0.3717 315° West 286 329 13,600 -1,020 Climbing FlightAware ADS-B
05:18PM 51.0643 0.3331 315° West 300 345 11,800 -1,020 Descending FlightAware UK
05:18PM 51.0699 0.3153 315° West 283 326 13,100 -1,200 Climbing FlightAware ADS-B
05:18PM 51.0817 0.2778 315° West 296 341 11,200 -1,020 Descending FlightAware UK
05:18PM 51.0879 0.2573 315° West 284 327 12,600 -840 Climbing FlightAware ADS-B
05:19PM 51.0993 0.2216 315° West 296 341 10,800 -1,020 Descending FlightAware UK
05:19PM 51.1055 0.2012 315° West 282 325 12,100 -1,200 Climbing FlightAware ADS-B
05:19PM 51.1165 0.1662 315° West 292 336 10,200 -1,020 Descending FlightAware UK
05:19PM 51.1231 0.1453 315° West 281 323 11,600 -1,020 Climbing FlightAware ADS-B
05:20PM 51.1339 0.1103 315° West 292 336 9,700 -1,020 Descending FlightAware UK
05:20PM 51.1408 0.0883 315° West 278 320 11,100 -840 Climbing FlightAware ADS-B
05:20PM 51.1509 0.0558 315° West 288 331 9,300 -1,020 Descending FlightAware UK
05:21PM 51.1581 0.0323 315° West 274 315 10,600 -840 Climbing FlightAware ADS-B
05:21PM 51.1673 0.0019 315° West 288 331 8,900 -780 Descending FlightAware UK
05:21PM 51.1756 -0.0240 315° West 274 315 10,200 1,860 Climbing FlightAware ADS-B
05:21PM 51.1862 -0.0588 296° West 274 315 10,000 -900 Descending FlightAware ADS-B
05:22PM 51.1945 -0.0869 295° West 275 316 9,700 -4,080 Descending FlightAware ADS-B
05:22PM 51.2036 -0.1179 295° West 282 325 7,900 -840 Descending FlightAware UK
05:22PM 51.2029 -0.1156 295° West 276 318 9,500 4,860 Climbing FlightAware ADS-B
05:22PM 51.2113 -0.1445 295° West 279 321 9,200 -1,020 Descending FlightAware ADS-B
05:22PM 51.2192 -0.1727 294° West 282 325 9,000 -1,020 Descending FlightAware ADS-B
05:23PM 51.2273 -0.2016 294° West 275 316 8,700 -780 Descending FlightAware ADS-B
05:23PM 51.2350 -0.2291 294° West 265 305 8,600 -600 Descending FlightAware ADS-B
05:23PM 51.2430 -0.2571 294° West 255 293 8,400 -600 Descending FlightAware ADS-B
05:23PM 51.2502 -0.2824 294° West 249 287 8,300 -3,600 Descending FlightAware ADS-B
05:24PM 51.2583 -0.3101 294° West 246 283 6,600 -420 Descending FlightAware UK
05:24PM 51.2576 -0.3081 294° West 247 284 8,200 5,220 Climbing FlightAware ADS-B
05:24PM 51.2647 -0.3326 295° West 245 282 8,000 -420 Descending FlightAware ADS-B
05:24PM 51.2718 -0.3577 294° West 248 285 8,000  Level FlightAware ADS-B
05:24PM 51.2789 -0.3828 294° West 250 288 8,000  Level FlightAware ADS-B
05:25PM 51.2860 -0.4081 294° West 249 287 8,000  Level FlightAware ADS-B
05:25PM 51.2938 -0.4357 294° West 252 290 8,000  Level FlightAware ADS-B
05:25PM 51.3010 -0.4620 294° West 250 288 8,000  Level FlightAware ADS-B
05:25PM 51.3069 -0.4829 294° West 250 288 8,000  Level FlightAware ADS-B
05:25PM 51.3094 -0.4913 295° West 250 288 8,000  Level FlightAware ADS-B
05:26PM 51.3151 -0.5151 291° West 251 289 8,000  Level FlightAware ADS-B
05:26PM 51.3209 -0.5409 290° West 250 288 8,000  Level FlightAware ADS-B
05:26PM 51.3266 -0.5677 289° West 252 290 8,000 -600 Level FlightAware ADS-B
05:26PM 51.3329 -0.5951 290° West 255 293 7,700 -1,440 Descending FlightAware ADS-B
05:27PM 51.3387 -0.6221 289° West 255 293 7,300 -1,620 Descending FlightAware ADS-B
05:27PM 51.3448 -0.6489 290° West 255 293 6,900 -1,560 Descending FlightAware ADS-B
05:27PM 51.3508 -0.6766 289° West 256 295 6,500 -1,560 Descending FlightAware ADS-B
05:27PM 51.3569 -0.7045 289° West 257 296 6,100 -4,800 Descending FlightAware ADS-B
05:28PM 51.3632 -0.7340 289° West 240 276 4,100 -1,500 Descending FlightAware UK
05:28PM 51.3626 -0.7314 289° West 257 296 5,700 4,860 Climbing FlightAware ADS-B
05:28PM 51.3682 -0.7587 288° West 257 296 5,400 -1,200 Descending FlightAware ADS-B
05:28PM 51.3741 -0.7877 288° West 256 295 5,100 -960 Descending FlightAware ADS-B
05:29PM 51.3803 -0.8182 288° West 259 298 4,900 -540 Descending FlightAware ADS-B
05:29PM 51.3829 -0.8298 290° West 259 298 4,900 -600 Level FlightAware ADS-B
05:29PM 51.3842 -0.8353 291° West 258 297 4,800 -900 Descending FlightAware ADS-B
05:29PM 51.3862 -0.8408 300° West 255 293 4,800  Level FlightAware ADS-B
05:29PM 51.3884 -0.8463 303° West 253 291 4,800 -900 Level FlightAware ADS-B
05:29PM 51.3914 -0.8515 313° West 250 288 4,700 -900 Descending FlightAware ADS-B
05:29PM 51.3945 -0.8556 320° Northwest 246 283 4,700  Level FlightAware ADS-B
05:29PM 51.3977 -0.8592 326° Northwest 243 280 4,700 -720 Level FlightAware ADS-B
05:29PM 51.4026 -0.8632 333° Northwest 237 273 4,600 -600 Descending FlightAware ADS-B
05:29PM 51.4095 -0.8658 347° North 230 265 4,600 -480 Level FlightAware ADS-B
05:29PM 51.4166 -0.8675 352° North 226 260 4,500 -480 Descending FlightAware ADS-B
05:29PM 51.4239 -0.8688 353° North 221 254 4,500 -540 Level FlightAware ADS-B
05:30PM 51.4290 -0.8694 356° North 217 250 4,400 -540 Descending FlightAware ADS-B
05:30PM 51.4354 -0.8681 North 208 239 4,400 -600 Level FlightAware ADS-B
05:30PM 51.4394 -0.8660 19° North 202 232 4,300 -900 Descending FlightAware ADS-B
05:30PM 51.4419 -0.8640 27° Northeast 198 228 4,300  Level FlightAware ADS-B
05:30PM 51.4456 -0.8593 38° Northeast 192 221 4,300 -600 Level FlightAware ADS-B
05:30PM 51.4486 -0.8539 48° Northeast 187 215 4,200 -600 Descending FlightAware ADS-B
05:30PM 51.4570 -0.8363 53° Northeast 182 209 4,100 -420 Descending FlightAware ADS-B
05:30PM 51.4639 -0.8215 53° Northeast 180 207 4,000 -600 Descending FlightAware ADS-B
05:31PM 51.4681 -0.8124 53° Northeast 179 206 3,900 -480 Descending FlightAware ADS-B
05:31PM 51.4702 -0.8061 62° Northeast 175 201 3,900 -720 Level FlightAware ADS-B
05:31PM 51.4710 -0.8019 73° East 175 201 3,800 -600 Descending FlightAware ADS-B
05:31PM 51.4730 -0.7921 72° East 173 199 3,800 -480 Level FlightAware ADS-B
05:31PM 51.4739 -0.7866 75° East 173 199 3,700 -780 Descending FlightAware ADS-B
05:31PM 51.4745 -0.7819 78° East 172 198 3,700 -600 Level FlightAware ADS-B
05:31PM 51.4753 -0.7726 82° East 171 197 3,600 -360 Descending FlightAware ADS-B
05:31PM 51.4760 -0.7611 84° East 170 196 3,600 -360 Level FlightAware ADS-B
05:31PM 51.4761 -0.7481 89° East 168 193 3,500 -720 Descending FlightAware ADS-B
05:32PM 51.4764 -0.7384 87° East 169 194 3,400 -480 Descending FlightAware ADS-B
05:32PM 51.4765 -0.7179 90° East 165 190 3,300 -420 Descending FlightAware ADS-B
05:32PM 51.4764 -0.6997 90° East 157 181 3,200 -3,840 Descending FlightAware ADS-B
05:32PM 51.4767 -0.6801 90° East 170 196 1,400 -1,140 Descending FlightAware UK
05:32PM 51.4767 -0.6816 90° East 153 176 2,900 4,860 Climbing FlightAware ADS-B
05:33PM 51.4768 -0.6645 89° East 150 173 2,700 -900 Descending FlightAware ADS-B
05:33PM 51.4769 -0.6506 89° East 148 170 2,500 -840 Descending FlightAware ADS-B
05:33PM 51.4769 -0.6408 90° East 147 169 2,400 -780 Descending FlightAware ADS-B
05:33PM 51.4770 -0.6245 89° East 145 167 2,200 -720 Descending FlightAware ADS-B
05:33PM 51.4770 -0.6135 90° East 145 167 2,100 -4,560 Descending FlightAware ADS-B
05:34PM 51.4770 -0.5951 90° East 156 180 300 -960 Descending FlightAware UK
05:34PM 51.4771 -0.5935 90° East 130 150 1,800 -660 Climbing FlightAware ADS-B
05:34PM 51.4773 -0.5787 90° East 140 161 100 -600 Descending FlightAware UK
05:34PM 51.4772 -0.5737 90° East 122 140 1,600 1,140 Climbing FlightAware ADS-B
05:35PM 51.4770 -0.5370 90° East 115 132 1,100 -660 Descending FlightAware
05:35PM 51.4770 -0.5210 90° East 115 132 900 -600 Descending FlightAware
05:36PM 51.4770 -0.4990 90° East 114 131 600 -360 Descending FlightAware
05:36PM 51.4780 -0.4810 85° East 114 131 600  Level FlightAware
05:39PM 51.4775 -0.4614 92° East  Level Estimated
05:40PM 51.4775 -0.4614 90° East  Level Estimated
05:41PM 51.4775 -0.4614 90° East  Level Estimated
05:42PM 51.4775 -0.4614 90° East  Level Estimated
05:43PM 51.4775 -0.4614 90° East  Level Estimated
05:44PM 51.4775 -0.4614 90° East  Level Estimated
05:45PM 51.4775 -0.4614 90° East  Level Estimated
05:46PM 51.4775 -0.4614 90° East  Level Estimated
05:47PM 51.4775 -0.4614 90° East  Level Estimated
05:48PM 51.4775 -0.4614 90° East  Level Estimated
05:49PM 51.4775 -0.4614 90° East  Level Estimated